Niantic, Connecticut
Current Conditions -  °F | °C
As of 10:56 AM on Friday 31 Oct 2014 (Local Time) from KGON Reporting Station
Broken Clouds Broken Clouds  
Wind Chill: 51°   Ceiling: 4600
Heat Index: 51°   Visibility: 10mi
Dew Point: 42°   Wind: 7mph
Humidity: 71%   Direction: 40°NE
Pressure: 30"   Gusts: NA
Location:  41.33°N, 72.19°W
Report Text: KGON 311456Z 04006KT 10SM BKN046 11/06 A3000 RMK AO2 SLP158 T01060056 58003
Loading
Personal Weather Stations






























Interactive Weather Map
Tropical Storm Tracking
New forecast layout! Learn more

10-Day Weather Forecast

Advertisements
Track Severe Weather on mobile